<?xml version="1.0" encoding="UTF-8" standalone="no" ?>
<gpx xmlns="http://www.topografix.com/GPX/1/1" xmlns:xsi="http://www.w3.org/2001/XMLSchema-instance" xsi:schemaLocation="http://www.topografix.com/GPX/1/1 http://www.topografix.com/GPX/1/1/gpx.xsd" version="1.1" creator="VisuGPX - https://www.visugpx.com">
  <metadata>
    <name>Lac Charpal</name>
    <desc><![CDATA[Lozère 2022]]></desc>
  </metadata>
  <trk>
    <name><![CDATA[Lac Charpal]]></name>
    <trkseg>
      <trkpt lat="44.61106" lon="3.57372">
        <ele>1404.038101</ele>
        <time>2022-07-17T13:49:13.405Z</time>
      </trkpt>
      <trkpt lat="44.61108" lon="3.57352">
        <ele>1404.038101</ele>
        <time>2022-07-17T13:49:29.438Z</time>
      </trkpt>
      <trkpt lat="44.6111" lon="3.5734">
        <ele>1404.038101</ele>
        <time>2022-07-17T13:49:39.024Z</time>
      </trkpt>
      <trkpt lat="44.61122" lon="3.57308">
        <ele>1404.038101</ele>
        <time>2022-07-17T13:50:07.460Z</time>
      </trkpt>
      <trkpt lat="44.61131" lon="3.57274">
        <ele>1404.038101</ele>
        <time>2022-07-17T13:50:34.687Z</time>
      </trkpt>
      <trkpt lat="44.6115" lon="3.57157">
        <ele>1405.493829</ele>
        <time>2022-07-17T13:52:09.048Z</time>
      </trkpt>
      <trkpt lat="44.61157" lon="3.57087">
        <ele>1406.530484</ele>
        <time>2022-07-17T13:53:02.735Z</time>
      </trkpt>
      <trkpt lat="44.6116" lon="3.57016">
        <ele>1407.586516</ele>
        <time>2022-07-17T13:53:56.252Z</time>
      </trkpt>
      <trkpt lat="44.61154" lon="3.56833">
        <ele>1409.090329</ele>
        <time>2022-07-17T13:56:12.641Z</time>
      </trkpt>
      <trkpt lat="44.61156" lon="3.56748">
        <ele>1409.705014</ele>
        <time>2022-07-17T13:57:16.032Z</time>
      </trkpt>
      <trkpt lat="44.61174" lon="3.56616">
        <ele>1409.152458</ele>
        <time>2022-07-17T13:58:51.998Z</time>
      </trkpt>
      <trkpt lat="44.61185" lon="3.56514">
        <ele>1408.731033</ele>
        <time>2022-07-17T14:00:06.607Z</time>
      </trkpt>
      <trkpt lat="44.61188" lon="3.56516">
        <ele>1408.709954</ele>
        <time>2022-07-17T14:00:10.889Z</time>
      </trkpt>
      <trkpt lat="44.61354" lon="3.56624">
        <ele>1404.474451</ele>
        <time>2022-07-17T14:03:21.993Z</time>
      </trkpt>
      <trkpt lat="44.61626" lon="3.56816">
        <ele>1391.87096</ele>
        <time>2022-07-17T14:08:49.390Z</time>
      </trkpt>
      <trkpt lat="44.6163" lon="3.56819">
        <ele>1391.611904</ele>
        <time>2022-07-17T14:08:56.752Z</time>
      </trkpt>
      <trkpt lat="44.61789" lon="3.56923">
        <ele>1378.564836</ele>
        <time>2022-07-17T14:12:17.205Z</time>
      </trkpt>
      <trkpt lat="44.6205" lon="3.56983">
        <ele>1352.872971</ele>
        <time>2022-07-17T14:17:37.875Z</time>
      </trkpt>
      <trkpt lat="44.62055" lon="3.57004">
        <ele>1351.776049</ele>
        <time>2022-07-17T14:17:56.394Z</time>
      </trkpt>
      <trkpt lat="44.62044" lon="3.57067">
        <ele>1348.631297</ele>
        <time>2022-07-17T14:18:49.289Z</time>
      </trkpt>
      <trkpt lat="44.62049" lon="3.57103">
        <ele>1346.817242</ele>
        <time>2022-07-17T14:19:19.211Z</time>
      </trkpt>
      <trkpt lat="44.62067" lon="3.57109">
        <ele>1345.51596</ele>
        <time>2022-07-17T14:19:40.474Z</time>
      </trkpt>
      <trkpt lat="44.62095" lon="3.57129">
        <ele>1343.372048</ele>
        <time>2022-07-17T14:20:13.714Z</time>
      </trkpt>
      <trkpt lat="44.62102" lon="3.57134">
        <ele>1342.803823</ele>
        <time>2022-07-17T14:20:23.325Z</time>
      </trkpt>
      <trkpt lat="44.62121" lon="3.57054">
        <ele>1341.258143</ele>
        <time>2022-07-17T14:21:25.682Z</time>
      </trkpt>
      <trkpt lat="44.62137" lon="3.56895">
        <ele>1338.865878</ele>
        <time>2022-07-17T14:23:24.976Z</time>
      </trkpt>
      <trkpt lat="44.62147" lon="3.56778">
        <ele>1337.843435</ele>
        <time>2022-07-17T14:24:49.489Z</time>
      </trkpt>
      <trkpt lat="44.62147" lon="3.56702">
        <ele>1337.271409</ele>
        <time>2022-07-17T14:25:43.880Z</time>
      </trkpt>
      <trkpt lat="44.62174" lon="3.56376">
        <ele>1333.155927</ele>
        <time>2022-07-17T14:29:47.387Z</time>
      </trkpt>
      <trkpt lat="44.62179" lon="3.56338">
        <ele>1332.698538</ele>
        <time>2022-07-17T14:30:15.864Z</time>
      </trkpt>
      <trkpt lat="44.62196" lon="3.56283">
        <ele>1331.978877</ele>
        <time>2022-07-17T14:31:00.418Z</time>
      </trkpt>
      <trkpt lat="44.62221" lon="3.56301">
        <ele>1331.508873</ele>
        <time>2022-07-17T14:31:29.474Z</time>
      </trkpt>
      <trkpt lat="44.62264" lon="3.56259">
        <ele>1330.619793</ele>
        <time>2022-07-17T14:32:24.078Z</time>
      </trkpt>
      <trkpt lat="44.62285" lon="3.56258">
        <ele>1330.274082</ele>
        <time>2022-07-17T14:32:44.977Z</time>
      </trkpt>
      <trkpt lat="44.62297" lon="3.5625">
        <ele>1330.098124</ele>
        <time>2022-07-17T14:32:58.939Z</time>
      </trkpt>
      <trkpt lat="44.62337" lon="3.56202">
        <ele>1329.803698</ele>
        <time>2022-07-17T14:33:52.376Z</time>
      </trkpt>
      <trkpt lat="44.62364" lon="3.5618">
        <ele>1329.629005</ele>
        <time>2022-07-17T14:34:23.810Z</time>
      </trkpt>
      <trkpt lat="44.62371" lon="3.56148">
        <ele>1329.495191</ele>
        <time>2022-07-17T14:34:47.914Z</time>
      </trkpt>
      <trkpt lat="44.62371" lon="3.5614">
        <ele>1329.464191</ele>
        <time>2022-07-17T14:34:53.549Z</time>
      </trkpt>
      <trkpt lat="44.62371" lon="3.56101">
        <ele>1329.307597</ele>
        <time>2022-07-17T14:35:21.741Z</time>
      </trkpt>
      <trkpt lat="44.62375" lon="3.56083">
        <ele>1329.233965</ele>
        <time>2022-07-17T14:35:35.048Z</time>
      </trkpt>
      <trkpt lat="44.62364" lon="3.56067">
        <ele>1329.144591</ele>
        <time>2022-07-17T14:35:51.368Z</time>
      </trkpt>
      <trkpt lat="44.62369" lon="3.56059">
        <ele>1329.057022</ele>
        <time>2022-07-17T14:35:59.627Z</time>
      </trkpt>
      <trkpt lat="44.62385" lon="3.56054">
        <ele>1328.784084</ele>
        <time>2022-07-17T14:36:15.695Z</time>
      </trkpt>
      <trkpt lat="44.6241" lon="3.56034">
        <ele>1328.300221</ele>
        <time>2022-07-17T14:36:44.760Z</time>
      </trkpt>
      <trkpt lat="44.62436" lon="3.55995">
        <ele>1327.645981</ele>
        <time>2022-07-17T14:37:24.187Z</time>
      </trkpt>
      <trkpt lat="44.6245" lon="3.55941">
        <ele>1326.944571</ele>
        <time>2022-07-17T14:38:07.092Z</time>
      </trkpt>
      <trkpt lat="44.62461" lon="3.55918">
        <ele>1326.603192</ele>
        <time>2022-07-17T14:38:28.180Z</time>
      </trkpt>
      <trkpt lat="44.62487" lon="3.5592">
        <ele>1326.15874</ele>
        <time>2022-07-17T14:38:55.672Z</time>
      </trkpt>
      <trkpt lat="44.62494" lon="3.5593">
        <ele>1326.001729</ele>
        <time>2022-07-17T14:39:06.058Z</time>
      </trkpt>
      <trkpt lat="44.62496" lon="3.55941">
        <ele>1325.888825</ele>
        <time>2022-07-17T14:39:14.347Z</time>
      </trkpt>
      <trkpt lat="44.62467" lon="3.56022">
        <ele>1324.953113</ele>
        <time>2022-07-17T14:40:22.594Z</time>
      </trkpt>
      <trkpt lat="44.62468" lon="3.56032">
        <ele>1324.849494</ele>
        <time>2022-07-17T14:40:30.101Z</time>
      </trkpt>
      <trkpt lat="44.62483" lon="3.56046">
        <ele>1324.597569</ele>
        <time>2022-07-17T14:40:48.247Z</time>
      </trkpt>
      <trkpt lat="44.62508" lon="3.56044">
        <ele>1324.235811</ele>
        <time>2022-07-17T14:41:14.134Z</time>
      </trkpt>
      <trkpt lat="44.62523" lon="3.56031">
        <ele>1323.979744</ele>
        <time>2022-07-17T14:41:31.905Z</time>
      </trkpt>
      <trkpt lat="44.62532" lon="3.56024">
        <ele>1323.835471</ele>
        <time>2022-07-17T14:41:42.024Z</time>
      </trkpt>
      <trkpt lat="44.62566" lon="3.55989">
        <ele>1323.568605</ele>
        <time>2022-07-17T14:42:24.711Z</time>
      </trkpt>
      <trkpt lat="44.62585" lon="3.55986">
        <ele>1323.688905</ele>
        <time>2022-07-17T14:42:43.883Z</time>
      </trkpt>
      <trkpt lat="44.62592" lon="3.55993">
        <ele>1323.744307</ele>
        <time>2022-07-17T14:42:52.788Z</time>
      </trkpt>
      <trkpt lat="44.62602" lon="3.56021">
        <ele>1323.882605</ele>
        <time>2022-07-17T14:43:15.267Z</time>
      </trkpt>
      <trkpt lat="44.62613" lon="3.56108">
        <ele>1324.275211</ele>
        <time>2022-07-17T14:44:20.034Z</time>
      </trkpt>
      <trkpt lat="44.62573" lon="3.56129">
        <ele>1324.54189</ele>
        <time>2022-07-17T14:45:03.849Z</time>
      </trkpt>
      <trkpt lat="44.62572" lon="3.56151">
        <ele>1324.667776</ele>
        <time>2022-07-17T14:45:20.634Z</time>
      </trkpt>
      <trkpt lat="44.62572" lon="3.56151">
        <ele>1324.667776</ele>
        <time>2022-07-17T14:45:20.686Z</time>
      </trkpt>
      <trkpt lat="44.6257" lon="3.56205">
        <ele>1325.025964</ele>
        <time>2022-07-17T14:46:01.042Z</time>
      </trkpt>
      <trkpt lat="44.62592" lon="3.56241">
        <ele>1325.334942</ele>
        <time>2022-07-17T14:46:35.628Z</time>
      </trkpt>
      <trkpt lat="44.62604" lon="3.5625">
        <ele>1325.467971</ele>
        <time>2022-07-17T14:46:50.454Z</time>
      </trkpt>
      <trkpt lat="44.62659" lon="3.56277">
        <ele>1326.005646</ele>
        <time>2022-07-17T14:47:49.141Z</time>
      </trkpt>
      <trkpt lat="44.62694" lon="3.56279">
        <ele>1326.349996</ele>
        <time>2022-07-17T14:48:25.088Z</time>
      </trkpt>
      <trkpt lat="44.62723" lon="3.56266">
        <ele>1326.734596</ele>
        <time>2022-07-17T14:48:57.169Z</time>
      </trkpt>
      <trkpt lat="44.62817" lon="3.56245">
        <ele>1327.926397</ele>
        <time>2022-07-17T14:50:38.366Z</time>
      </trkpt>
      <trkpt lat="44.6289" lon="3.56254">
        <ele>1328.459188</ele>
        <time>2022-07-17T14:51:54.514Z</time>
      </trkpt>
      <trkpt lat="44.62981" lon="3.56221">
        <ele>1328.278875</ele>
        <time>2022-07-17T14:53:28.886Z</time>
      </trkpt>
      <trkpt lat="44.62997" lon="3.56217">
        <ele>1328.245948</ele>
        <time>2022-07-17T14:53:46.192Z</time>
      </trkpt>
      <trkpt lat="44.63" lon="3.5622">
        <ele>1328.239515</ele>
        <time>2022-07-17T14:53:49.778Z</time>
      </trkpt>
      <trkpt lat="44.63022" lon="3.56249">
        <ele>1328.180835</ele>
        <time>2022-07-17T14:54:20.391Z</time>
      </trkpt>
      <trkpt lat="44.63063" lon="3.56285">
        <ele>1327.93934</ele>
        <time>2022-07-17T14:55:09.353Z</time>
      </trkpt>
      <trkpt lat="44.63067" lon="3.56294">
        <ele>1327.89558</ele>
        <time>2022-07-17T14:55:17.151Z</time>
      </trkpt>
      <trkpt lat="44.63091" lon="3.56392">
        <ele>1327.470582</ele>
        <time>2022-07-17T14:56:33.243Z</time>
      </trkpt>
      <trkpt lat="44.63112" lon="3.56452">
        <ele>1327.196674</ele>
        <time>2022-07-17T14:57:21.090Z</time>
      </trkpt>
      <trkpt lat="44.63206" lon="3.56493">
        <ele>1327.970646</ele>
        <time>2022-07-17T14:59:02.721Z</time>
      </trkpt>
      <trkpt lat="44.6321" lon="3.56522">
        <ele>1328.179842</ele>
        <time>2022-07-17T14:59:25.453Z</time>
      </trkpt>
      <trkpt lat="44.63219" lon="3.56542">
        <ele>1328.340352</ele>
        <time>2022-07-17T14:59:42.818Z</time>
      </trkpt>
      <trkpt lat="44.63219" lon="3.56555">
        <ele>1328.433233</ele>
        <time>2022-07-17T14:59:52.516Z</time>
      </trkpt>
      <trkpt lat="44.63203" lon="3.56578">
        <ele>1328.650779</ele>
        <time>2022-07-17T15:00:16.245Z</time>
      </trkpt>
      <trkpt lat="44.63202" lon="3.5659">
        <ele>1328.734638</ele>
        <time>2022-07-17T15:00:25.002Z</time>
      </trkpt>
      <trkpt lat="44.63204" lon="3.56598">
        <ele>1328.794063</ele>
        <time>2022-07-17T15:00:31.334Z</time>
      </trkpt>
      <trkpt lat="44.63219" lon="3.56609">
        <ele>1328.916418</ele>
        <time>2022-07-17T15:00:48.796Z</time>
      </trkpt>
      <trkpt lat="44.6323" lon="3.56626">
        <ele>1328.992136</ele>
        <time>2022-07-17T15:01:05.526Z</time>
      </trkpt>
      <trkpt lat="44.63234" lon="3.56641">
        <ele>1329.047039</ele>
        <time>2022-07-17T15:01:18.217Z</time>
      </trkpt>
      <trkpt lat="44.6323" lon="3.56655">
        <ele>1329.096901</ele>
        <time>2022-07-17T15:01:29.238Z</time>
      </trkpt>
      <trkpt lat="44.63229" lon="3.56659">
        <ele>1329.110545</ele>
        <time>2022-07-17T15:01:32.466Z</time>
      </trkpt>
      <trkpt lat="44.63194" lon="3.5667">
        <ele>1329.273172</ele>
        <time>2022-07-17T15:02:08.500Z</time>
      </trkpt>
      <trkpt lat="44.6315" lon="3.56663">
        <ele>1329.4801</ele>
        <time>2022-07-17T15:02:53.733Z</time>
      </trkpt>
      <trkpt lat="44.63118" lon="3.56635">
        <ele>1329.652135</ele>
        <time>2022-07-17T15:03:31.361Z</time>
      </trkpt>
      <trkpt lat="44.63103" lon="3.56612">
        <ele>1329.591</ele>
        <time>2022-07-17T15:03:54.056Z</time>
      </trkpt>
      <trkpt lat="44.63074" lon="3.56597">
        <ele>1329.206982</ele>
        <time>2022-07-17T15:04:25.993Z</time>
      </trkpt>
      <trkpt lat="44.6303" lon="3.56542">
        <ele>1328.48575</ele>
        <time>2022-07-17T15:05:26.375Z</time>
      </trkpt>
      <trkpt lat="44.63016" lon="3.56538">
        <ele>1328.315406</ele>
        <time>2022-07-17T15:05:40.739Z</time>
      </trkpt>
      <trkpt lat="44.6297" lon="3.56551">
        <ele>1327.732615</ele>
        <time>2022-07-17T15:06:30.324Z</time>
      </trkpt>
      <trkpt lat="44.62959" lon="3.56562">
        <ele>1327.569606</ele>
        <time>2022-07-17T15:06:43.977Z</time>
      </trkpt>
      <trkpt lat="44.6291" lon="3.56656">
        <ele>1326.39554</ele>
        <time>2022-07-17T15:08:10.071Z</time>
      </trkpt>
      <trkpt lat="44.62905" lon="3.56659">
        <ele>1326.325955</ele>
        <time>2022-07-17T15:08:15.266Z</time>
      </trkpt>
      <trkpt lat="44.62897" lon="3.56666">
        <ele>1326.196201</ele>
        <time>2022-07-17T15:08:24.746Z</time>
      </trkpt>
      <trkpt lat="44.62875" lon="3.56721">
        <ele>1325.554282</ele>
        <time>2022-07-17T15:09:11.138Z</time>
      </trkpt>
      <trkpt lat="44.62883" lon="3.56795">
        <ele>1324.88588</ele>
        <time>2022-07-17T15:10:05.806Z</time>
      </trkpt>
      <trkpt lat="44.62925" lon="3.56869">
        <ele>1324.479844</ele>
        <time>2022-07-17T15:11:14.497Z</time>
      </trkpt>
      <trkpt lat="44.62957" lon="3.5696">
        <ele>1324.041012</ele>
        <time>2022-07-17T15:12:27.673Z</time>
      </trkpt>
      <trkpt lat="44.62974" lon="3.56977">
        <ele>1323.918847</ele>
        <time>2022-07-17T15:12:47.927Z</time>
      </trkpt>
      <trkpt lat="44.63021" lon="3.57047">
        <ele>1324.641508</ele>
        <time>2022-07-17T15:13:57.030Z</time>
      </trkpt>
      <trkpt lat="44.63033" lon="3.57065">
        <ele>1324.864647</ele>
        <time>2022-07-17T15:14:14.419Z</time>
      </trkpt>
      <trkpt lat="44.63054" lon="3.57231">
        <ele>1326.822968</ele>
        <time>2022-07-17T15:16:23.624Z</time>
      </trkpt>
      <trkpt lat="44.63069" lon="3.57268">
        <ele>1327.895948</ele>
        <time>2022-07-17T15:16:57.732Z</time>
      </trkpt>
      <trkpt lat="44.63072" lon="3.57302">
        <ele>1328.753218</ele>
        <time>2022-07-17T15:17:25.220Z</time>
      </trkpt>
      <trkpt lat="44.63071" lon="3.57358">
        <ele>1330.159269</ele>
        <time>2022-07-17T15:18:11.391Z</time>
      </trkpt>
      <trkpt lat="44.63089" lon="3.57409">
        <ele>1331.600215</ele>
        <time>2022-07-17T15:18:57.708Z</time>
      </trkpt>
      <trkpt lat="44.63136" lon="3.57468">
        <ele>1332.858252</ele>
        <time>2022-07-17T15:20:07.521Z</time>
      </trkpt>
      <trkpt lat="44.63138" lon="3.57472">
        <ele>1332.886806</ele>
        <time>2022-07-17T15:20:12.070Z</time>
      </trkpt>
      <trkpt lat="44.63114" lon="3.5751">
        <ele>1333.186037</ele>
        <time>2022-07-17T15:20:51.861Z</time>
      </trkpt>
      <trkpt lat="44.6308" lon="3.57607">
        <ele>1333.812231</ele>
        <time>2022-07-17T15:22:08.913Z</time>
      </trkpt>
      <trkpt lat="44.63113" lon="3.57628">
        <ele>1333.779251</ele>
        <time>2022-07-17T15:22:45.915Z</time>
      </trkpt>
      <trkpt lat="44.63138" lon="3.57658">
        <ele>1332.770131</ele>
        <time>2022-07-17T15:23:20.957Z</time>
      </trkpt>
      <trkpt lat="44.63114" lon="3.57821">
        <ele>1329.097958</ele>
        <time>2022-07-17T15:25:29.275Z</time>
      </trkpt>
      <trkpt lat="44.63093" lon="3.57866">
        <ele>1328.165016</ele>
        <time>2022-07-17T15:26:09.505Z</time>
      </trkpt>
      <trkpt lat="44.63055" lon="3.58073">
        <ele>1325.422673</ele>
        <time>2022-07-17T15:28:47.990Z</time>
      </trkpt>
      <trkpt lat="44.63001" lon="3.58144">
        <ele>1325.341255</ele>
        <time>2022-07-17T15:30:02.264Z</time>
      </trkpt>
      <trkpt lat="44.62848" lon="3.5833">
        <ele>1325.88241</ele>
        <time>2022-07-17T15:33:28.028Z</time>
      </trkpt>
      <trkpt lat="44.62847" lon="3.58338">
        <ele>1325.907148</ele>
        <time>2022-07-17T15:33:33.747Z</time>
      </trkpt>
      <trkpt lat="44.62887" lon="3.58423">
        <ele>1326.227658</ele>
        <time>2022-07-17T15:34:47.826Z</time>
      </trkpt>
      <trkpt lat="44.62892" lon="3.58434">
        <ele>1326.267733</ele>
        <time>2022-07-17T15:34:57.118Z</time>
      </trkpt>
      <trkpt lat="44.62921" lon="3.58502">
        <ele>1326.827816</ele>
        <time>2022-07-17T15:35:55.348Z</time>
      </trkpt>
      <trkpt lat="44.6295" lon="3.58544">
        <ele>1327.259177</ele>
        <time>2022-07-17T15:36:37.890Z</time>
      </trkpt>
      <trkpt lat="44.63015" lon="3.58573">
        <ele>1327.969023</ele>
        <time>2022-07-17T15:37:49.175Z</time>
      </trkpt>
      <trkpt lat="44.63046" lon="3.58615">
        <ele>1328.698143</ele>
        <time>2022-07-17T15:38:34.157Z</time>
      </trkpt>
      <trkpt lat="44.63055" lon="3.58644">
        <ele>1329.215793</ele>
        <time>2022-07-17T15:38:59.133Z</time>
      </trkpt>
      <trkpt lat="44.63055" lon="3.5866">
        <ele>1329.469173</ele>
        <time>2022-07-17T15:39:11.423Z</time>
      </trkpt>
      <trkpt lat="44.63037" lon="3.58729">
        <ele>1330.625234</ele>
        <time>2022-07-17T15:40:07.920Z</time>
      </trkpt>
      <trkpt lat="44.63024" lon="3.58746">
        <ele>1331.028891</ele>
        <time>2022-07-17T15:40:27.508Z</time>
      </trkpt>
      <trkpt lat="44.6297" lon="3.58755">
        <ele>1332.230522</ele>
        <time>2022-07-17T15:41:27.030Z</time>
      </trkpt>
      <trkpt lat="44.62937" lon="3.58773">
        <ele>1332.73996</ele>
        <time>2022-07-17T15:42:05.040Z</time>
      </trkpt>
      <trkpt lat="44.62641" lon="3.59048">
        <ele>1336.640635</ele>
        <time>2022-07-17T15:48:14.604Z</time>
      </trkpt>
      <trkpt lat="44.62635" lon="3.59053">
        <ele>1336.619673</ele>
        <time>2022-07-17T15:48:22.522Z</time>
      </trkpt>
      <trkpt lat="44.62618" lon="3.59077">
        <ele>1336.549837</ele>
        <time>2022-07-17T15:48:46.829Z</time>
      </trkpt>
      <trkpt lat="44.62599" lon="3.59136">
        <ele>1336.417016</ele>
        <time>2022-07-17T15:49:32.770Z</time>
      </trkpt>
      <trkpt lat="44.62592" lon="3.59289">
        <ele>1335.559099</ele>
        <time>2022-07-17T15:51:24.563Z</time>
      </trkpt>
      <trkpt lat="44.62592" lon="3.59306">
        <ele>1335.351924</ele>
        <time>2022-07-17T15:51:37.697Z</time>
      </trkpt>
      <trkpt lat="44.62585" lon="3.59331">
        <ele>1335.039862</ele>
        <time>2022-07-17T15:51:56.935Z</time>
      </trkpt>
      <trkpt lat="44.62585" lon="3.59369">
        <ele>1334.586409</ele>
        <time>2022-07-17T15:52:25.395Z</time>
      </trkpt>
      <trkpt lat="44.62577" lon="3.59381">
        <ele>1334.389164</ele>
        <time>2022-07-17T15:52:37.614Z</time>
      </trkpt>
      <trkpt lat="44.62575" lon="3.59405">
        <ele>1334.10616</ele>
        <time>2022-07-17T15:52:55.556Z</time>
      </trkpt>
      <trkpt lat="44.62579" lon="3.59431">
        <ele>1333.781649</ele>
        <time>2022-07-17T15:53:15.657Z</time>
      </trkpt>
      <trkpt lat="44.62569" lon="3.5947">
        <ele>1333.30038</ele>
        <time>2022-07-17T15:53:45.910Z</time>
      </trkpt>
      <trkpt lat="44.62569" lon="3.595">
        <ele>1333.254883</ele>
        <time>2022-07-17T15:54:08.684Z</time>
      </trkpt>
      <trkpt lat="44.62568" lon="3.59546">
        <ele>1333.317707</ele>
        <time>2022-07-17T15:54:42.643Z</time>
      </trkpt>
      <trkpt lat="44.62547" lon="3.59766">
        <ele>1334.1092</ele>
        <time>2022-07-17T15:57:26.662Z</time>
      </trkpt>
      <trkpt lat="44.62538" lon="3.59798">
        <ele>1334.575336</ele>
        <time>2022-07-17T15:57:52.493Z</time>
      </trkpt>
      <trkpt lat="44.6251" lon="3.59821">
        <ele>1335.212484</ele>
        <time>2022-07-17T15:58:27.323Z</time>
      </trkpt>
      <trkpt lat="44.62474" lon="3.5979">
        <ele>1336.01795</ele>
        <time>2022-07-17T15:59:12.458Z</time>
      </trkpt>
      <trkpt lat="44.62463" lon="3.59766">
        <ele>1336.414554</ele>
        <time>2022-07-17T15:59:34.998Z</time>
      </trkpt>
      <trkpt lat="44.62451" lon="3.59758">
        <ele>1336.665407</ele>
        <time>2022-07-17T15:59:49.549Z</time>
      </trkpt>
      <trkpt lat="44.62435" lon="3.59746">
        <ele>1337.015566</ele>
        <time>2022-07-17T16:00:09.515Z</time>
      </trkpt>
      <trkpt lat="44.62434" lon="3.59746">
        <ele>1337.032164</ele>
        <time>2022-07-17T16:00:10.439Z</time>
      </trkpt>
      <trkpt lat="44.62396" lon="3.59709">
        <ele>1337.635</ele>
        <time>2022-07-17T16:01:00.184Z</time>
      </trkpt>
      <trkpt lat="44.62386" lon="3.59696">
        <ele>1337.810347</ele>
        <time>2022-07-17T16:01:14.075Z</time>
      </trkpt>
      <trkpt lat="44.62358" lon="3.59652">
        <ele>1338.365646</ele>
        <time>2022-07-17T16:01:57.228Z</time>
      </trkpt>
      <trkpt lat="44.62316" lon="3.59623">
        <ele>1338.971199</ele>
        <time>2022-07-17T16:02:44.697Z</time>
      </trkpt>
      <trkpt lat="44.62307" lon="3.59605">
        <ele>1339.179434</ele>
        <time>2022-07-17T16:03:01.399Z</time>
      </trkpt>
      <trkpt lat="44.62305" lon="3.59583">
        <ele>1339.379444</ele>
        <time>2022-07-17T16:03:17.688Z</time>
      </trkpt>
      <trkpt lat="44.62304" lon="3.59573">
        <ele>1339.554075</ele>
        <time>2022-07-17T16:03:25.291Z</time>
      </trkpt>
      <trkpt lat="44.62306" lon="3.5956">
        <ele>1339.773358</ele>
        <time>2022-07-17T16:03:34.739Z</time>
      </trkpt>
      <trkpt lat="44.62329" lon="3.59493">
        <ele>1341.037956</ele>
        <time>2022-07-17T16:04:32.699Z</time>
      </trkpt>
      <trkpt lat="44.62329" lon="3.59477">
        <ele>1341.299542</ele>
        <time>2022-07-17T16:04:44.368Z</time>
      </trkpt>
      <trkpt lat="44.62323" lon="3.59455">
        <ele>1341.702872</ele>
        <time>2022-07-17T16:05:02.703Z</time>
      </trkpt>
      <trkpt lat="44.6232" lon="3.59447">
        <ele>1341.865285</ele>
        <time>2022-07-17T16:05:10.239Z</time>
      </trkpt>
      <trkpt lat="44.62289" lon="3.59374">
        <ele>1343.304094</ele>
        <time>2022-07-17T16:06:15.142Z</time>
      </trkpt>
      <trkpt lat="44.6228" lon="3.59329">
        <ele>1344.175522</ele>
        <time>2022-07-17T16:06:52.664Z</time>
      </trkpt>
      <trkpt lat="44.62259" lon="3.59282">
        <ele>1345.309873</ele>
        <time>2022-07-17T16:07:37.781Z</time>
      </trkpt>
      <trkpt lat="44.62229" lon="3.59187">
        <ele>1347.428913</ele>
        <time>2022-07-17T16:08:59.943Z</time>
      </trkpt>
      <trkpt lat="44.62226" lon="3.59157">
        <ele>1348.054005</ele>
        <time>2022-07-17T16:09:23.790Z</time>
      </trkpt>
      <trkpt lat="44.62212" lon="3.59105">
        <ele>1348.877781</ele>
        <time>2022-07-17T16:10:06.324Z</time>
      </trkpt>
      <trkpt lat="44.62197" lon="3.59039">
        <ele>1349.040976</ele>
        <time>2022-07-17T16:10:56.778Z</time>
      </trkpt>
      <trkpt lat="44.62186" lon="3.58982">
        <ele>1349.179573</ele>
        <time>2022-07-17T16:11:38.964Z</time>
      </trkpt>
      <trkpt lat="44.62174" lon="3.58929">
        <ele>1349.311478</ele>
        <time>2022-07-17T16:12:19.078Z</time>
      </trkpt>
      <trkpt lat="44.62135" lon="3.5875">
        <ele>1349.028769</ele>
        <time>2022-07-17T16:14:33.819Z</time>
      </trkpt>
      <trkpt lat="44.62134" lon="3.58732">
        <ele>1348.973129</ele>
        <time>2022-07-17T16:14:47.326Z</time>
      </trkpt>
      <trkpt lat="44.62132" lon="3.58714">
        <ele>1348.918073</ele>
        <time>2022-07-17T16:15:00.473Z</time>
      </trkpt>
      <trkpt lat="44.6212" lon="3.58677">
        <ele>1348.795666</ele>
        <time>2022-07-17T16:15:29.768Z</time>
      </trkpt>
      <trkpt lat="44.62109" lon="3.58632">
        <ele>1348.58209</ele>
        <time>2022-07-17T16:16:04.053Z</time>
      </trkpt>
      <trkpt lat="44.6209" lon="3.58567">
        <ele>1347.717092</ele>
        <time>2022-07-17T16:16:53.858Z</time>
      </trkpt>
      <trkpt lat="44.62073" lon="3.58496">
        <ele>1346.783842</ele>
        <time>2022-07-17T16:17:50.386Z</time>
      </trkpt>
      <trkpt lat="44.62069" lon="3.58478">
        <ele>1346.560404</ele>
        <time>2022-07-17T16:18:03.475Z</time>
      </trkpt>
      <trkpt lat="44.62056" lon="3.58454">
        <ele>1346.1871</ele>
        <time>2022-07-17T16:18:26.433Z</time>
      </trkpt>
      <trkpt lat="44.62049" lon="3.58428">
        <ele>1345.835578</ele>
        <time>2022-07-17T16:18:47.224Z</time>
      </trkpt>
      <trkpt lat="44.62047" lon="3.58423">
        <ele>1345.766055</ele>
        <time>2022-07-17T16:18:51.339Z</time>
      </trkpt>
      <trkpt lat="44.62034" lon="3.58376">
        <ele>1345.002585</ele>
        <time>2022-07-17T16:19:29.853Z</time>
      </trkpt>
      <trkpt lat="44.6203" lon="3.58368">
        <ele>1344.847708</ele>
        <time>2022-07-17T16:19:37.937Z</time>
      </trkpt>
      <trkpt lat="44.62038" lon="3.58354">
        <ele>1344.564244</ele>
        <time>2022-07-17T16:19:50.849Z</time>
      </trkpt>
      <trkpt lat="44.62036" lon="3.58338">
        <ele>1344.289811</ele>
        <time>2022-07-17T16:20:03.278Z</time>
      </trkpt>
      <trkpt lat="44.62021" lon="3.583">
        <ele>1343.582423</ele>
        <time>2022-07-17T16:20:36.983Z</time>
      </trkpt>
      <trkpt lat="44.62002" lon="3.58273">
        <ele>1342.955105</ele>
        <time>2022-07-17T16:21:06.640Z</time>
      </trkpt>
      <trkpt lat="44.61955" lon="3.5824">
        <ele>1341.734802</ele>
        <time>2022-07-17T16:22:01.852Z</time>
      </trkpt>
      <trkpt lat="44.61902" lon="3.58221">
        <ele>1342.65309</ele>
        <time>2022-07-17T16:22:59.096Z</time>
      </trkpt>
      <trkpt lat="44.61891" lon="3.58203">
        <ele>1343.189973</ele>
        <time>2022-07-17T16:23:18.066Z</time>
      </trkpt>
      <trkpt lat="44.61884" lon="3.5819">
        <ele>1343.544272</ele>
        <time>2022-07-17T16:23:30.974Z</time>
      </trkpt>
      <trkpt lat="44.61845" lon="3.58144">
        <ele>1345.137407</ele>
        <time>2022-07-17T16:24:29.840Z</time>
      </trkpt>
      <trkpt lat="44.61804" lon="3.58075">
        <ele>1347.142888</ele>
        <time>2022-07-17T16:25:42.869Z</time>
      </trkpt>
      <trkpt lat="44.61802" lon="3.5808">
        <ele>1347.267344</ele>
        <time>2022-07-17T16:25:47.180Z</time>
      </trkpt>
      <trkpt lat="44.6179" lon="3.58117">
        <ele>1348.265125</ele>
        <time>2022-07-17T16:26:20.479Z</time>
      </trkpt>
      <trkpt lat="44.61769" lon="3.58213">
        <ele>1350.720104</ele>
        <time>2022-07-17T16:27:43.068Z</time>
      </trkpt>
      <trkpt lat="44.61704" lon="3.58357">
        <ele>1354.691205</ele>
        <time>2022-07-17T16:29:54.164Z</time>
      </trkpt>
      <trkpt lat="44.61666" lon="3.58399">
        <ele>1356.166775</ele>
        <time>2022-07-17T16:30:47.269Z</time>
      </trkpt>
      <trkpt lat="44.61583" lon="3.58443">
        <ele>1358.801521</ele>
        <time>2022-07-17T16:32:27.355Z</time>
      </trkpt>
      <trkpt lat="44.61546" lon="3.58481">
        <ele>1359.553288</ele>
        <time>2022-07-17T16:33:19.684Z</time>
      </trkpt>
      <trkpt lat="44.61516" lon="3.58551">
        <ele>1360.504032</ele>
        <time>2022-07-17T16:34:22.600Z</time>
      </trkpt>
      <trkpt lat="44.61507" lon="3.58638">
        <ele>1361.519435</ele>
        <time>2022-07-17T16:35:25.260Z</time>
      </trkpt>
      <trkpt lat="44.61496" lon="3.58795">
        <ele>1361.092596</ele>
        <time>2022-07-17T16:37:21.757Z</time>
      </trkpt>
      <trkpt lat="44.61475" lon="3.58851">
        <ele>1360.865614</ele>
        <time>2022-07-17T16:38:07.105Z</time>
      </trkpt>
      <trkpt lat="44.61463" lon="3.58865">
        <ele>1360.784094</ele>
        <time>2022-07-17T16:38:23.500Z</time>
      </trkpt>
      <trkpt lat="44.61455" lon="3.58862">
        <ele>1360.744898</ele>
        <time>2022-07-17T16:38:31.737Z</time>
      </trkpt>
      <trkpt lat="44.61453" lon="3.58857">
        <ele>1360.722543</ele>
        <time>2022-07-17T16:38:36.420Z</time>
      </trkpt>
      <trkpt lat="44.61438" lon="3.58814">
        <ele>1361.814213</ele>
        <time>2022-07-17T16:39:11.990Z</time>
      </trkpt>
      <trkpt lat="44.61383" lon="3.58547">
        <ele>1368.835917</ele>
        <time>2022-07-17T16:42:59.082Z</time>
      </trkpt>
      <trkpt lat="44.61335" lon="3.58388">
        <ele>1373.985629</ele>
        <time>2022-07-17T16:45:19.631Z</time>
      </trkpt>
      <trkpt lat="44.61279" lon="3.58174">
        <ele>1380.852452</ele>
        <time>2022-07-17T16:48:26.440Z</time>
      </trkpt>
      <trkpt lat="44.61212" lon="3.57983">
        <ele>1387.043906</ele>
        <time>2022-07-17T16:51:21.096Z</time>
      </trkpt>
      <trkpt lat="44.6121" lon="3.57979">
        <ele>1387.175264</ele>
        <time>2022-07-17T16:51:24.942Z</time>
      </trkpt>
      <trkpt lat="44.61175" lon="3.57873">
        <ele>1390.093183</ele>
        <time>2022-07-17T16:52:58.217Z</time>
      </trkpt>
      <trkpt lat="44.61137" lon="3.57667">
        <ele>1394.129136</ele>
        <time>2022-07-17T16:55:43.630Z</time>
      </trkpt>
      <trkpt lat="44.61097" lon="3.5749">
        <ele>1394.129136</ele>
        <time>2022-07-17T16:58:05.577Z</time>
      </trkpt>
      <trkpt lat="44.61106" lon="3.57379">
        <ele>1394.129136</ele>
        <time>2022-07-17T16:59:28.028Z</time>
      </trkpt>
    </trkseg>
  </trk>
</gpx>